This is the latest recevied weather packets stored in our database for station/object EFTU. If no packets are shown the sender has not sent any weather packets the latest 10 day(s).
| Time | Temp. | Humidity | Pressure | Rain* | Wind** | Luminosity | Snow |
|---|---|---|---|---|---|---|---|
| 1778249254 | 13.89° C | 21% | 1026.3 hPa | - | - | - | - |
| 1778248055 | 14.44° C | 21% | 1026.3 hPa | - | - | - | - |
| 1778244453 | 14.44° C | 25% | 1026.6 hPa | - | - | - | - |
| 1778243253 | 14.44° C | 26% | 1026.6 hPa | - | - | - | - |
| 1778242054 | 13.89° C | 24% | 1026.9 hPa | - | - | - | - |
| 1778240853 | 13.89° C | 23% | 1027 hPa | - | - | - | - |
| 1778239654 | 13.89° C | 24% | 1027 hPa | - | - | - | - |
| 1778238453 | 13.33° C | 22% | 1027.1 hPa | - | - | - | - |
| 1778237253 | 13.33° C | 24% | 1026.9 hPa | - | - | - | - |
| 1778236053 | 13.89° C | 24% | 1027 hPa | - | - | - | - |
| 1778234853 | 12.22° C | 23% | 1027 hPa | - | - | - | - |
| 1778233653 | 12.22° C | 23% | 1027.1 hPa | - | - | - | - |
| 1778232453 | 12.78° C | 27% | 1027.1 hPa | - | - | - | - |
| 1778231253 | 12.22° C | 26% | 1027.2 hPa | - | - | - | - |
| 1778230052 | 12.22° C | 28% | 1027.3 hPa | - | - | - | - |
| 1778228852 | 12.22° C | 28% | 1027.2 hPa | - | - | - | - |
| 1778227653 | 11.11° C | 31% | 1027.2 hPa | - | - | - | - |
| 1778226453 | 10.56° C | 31% | 1027.1 hPa | - | - | - | - |
| 1778225252 | 10.56° C | 33% | 1027 hPa | - | - | - | - |
| 1778224053 | 10.56° C | 35% | 1026.9 hPa | - | - | - | - |
| 1778222852 | 9.44° C | 37% | 1026.8 hPa | - | - | - | - |
| 1778221652 | 8.89° C | 34% | 1026.6 hPa | - | - | - | - |
| 1778220453 | 8.33° C | 40% | 1026.3 hPa | - | - | - | - |
| 1778218053 | 6.11° C | 55% | 1026 hPa | - | - | - | - |
| 1778216852 | 5.56° C | 63% | 1025.8 hPa | - | - | - | - |
* Rain since midnight (hover to see other rain measurements)
** Current wind speed in m/s (hover to see current wind gust speed)